sensor_id;sensor_type;location;lat;lon;timestamp;temperature;humidity
21318;DHT22;10818;50.830;6.524;2023-03-20T00:02:29;10.30;99.90
21318;DHT22;10818;50.830;6.524;2023-03-20T00:07:30;10.20;99.90
21318;DHT22;10818;50.830;6.524;2023-03-20T00:12:30;10.20;99.90
21318;DHT22;10818;50.830;6.524;2023-03-20T00:17:31;10.10;99.90
21318;DHT22;10818;50.830;6.524;2023-03-20T00:22:31;10.10;99.90
21318;DHT22;10818;50.830;6.524;2023-03-20T00:27:32;10.00;99.90
21318;DHT22;10818;50.830;6.524;2023-03-20T00:32:32;10.10;99.90
21318;DHT22;10818;50.830;6.524;2023-03-20T00:37:33;9.90;99.90
21318;DHT22;10818;50.830;6.524;2023-03-20T00:42:33;9.90;99.90
21318;DHT22;10818;50.830;6.524;2023-03-20T00:47:34;9.80;99.90
21318;DHT22;10818;50.830;6.524;2023-03-20T00:52:36;9.90;99.90
21318;DHT22;10818;50.830;6.524;2023-03-20T00:57:53;9.80;99.90
21318;DHT22;10818;50.830;6.524;2023-03-20T01:02:55;9.90;99.90
21318;DHT22;10818;50.830;6.524;2023-03-20T01:07:56;9.90;99.90
21318;DHT22;10818;50.830;6.524;2023-03-20T01:12:58;9.90;99.90
21318;DHT22;10818;50.830;6.524;2023-03-20T01:17:59;9.90;99.90
21318;DHT22;10818;50.830;6.524;2023-03-20T01:23:00;9.90;99.90
21318;DHT22;10818;50.830;6.524;2023-03-20T01:28:00;9.90;99.90
21318;DHT22;10818;50.830;6.524;2023-03-20T01:33:01;9.90;99.90
21318;DHT22;10818;50.830;6.524;2023-03-20T01:38:02;9.90;99.90
21318;DHT22;10818;50.830;6.524;2023-03-20T01:43:04;9.80;99.90
21318;DHT22;10818;50.830;6.524;2023-03-20T01:48:15;9.70;99.90
21318;DHT22;10818;50.830;6.524;2023-03-20T01:53:18;9.50;99.90
21318;DHT22;10818;50.830;6.524;2023-03-20T01:58:21;9.30;99.90
21318;DHT22;10818;50.830;6.524;2023-03-20T02:03:23;9.00;99.90
21318;DHT22;10818;50.830;6.524;2023-03-20T02:08:25;8.90;99.90
21318;DHT22;10818;50.830;6.524;2023-03-20T02:13:26;8.80;99.90
21318;DHT22;10818;50.830;6.524;2023-03-20T02:18:28;8.70;99.90
21318;DHT22;10818;50.830;6.524;2023-03-20T02:23:49;8.60;99.90
21318;DHT22;10818;50.830;6.524;2023-03-20T02:44:37;8.60;99.90
21318;DHT22;10818;50.830;6.524;2023-03-20T02:55:03;8.50;99.90
21318;DHT22;10818;50.830;6.524;2023-03-20T03:00:14;8.50;99.90
21318;DHT22;10818;50.830;6.524;2023-03-20T03:05:20;8.60;99.90
21318;DHT22;10818;50.830;6.524;2023-03-20T03:10:26;8.60;99.90
21318;DHT22;10818;50.830;6.524;2023-03-20T03:15:33;8.40;99.90
21318;DHT22;10818;50.830;6.524;2023-03-20T03:20:36;8.20;99.90
21318;DHT22;10818;50.830;6.524;2023-03-20T03:25:38;8.10;99.90
21318;DHT22;10818;50.830;6.524;2023-03-20T03:30:39;8.00;99.90
21318;DHT22;10818;50.830;6.524;2023-03-20T03:35:41;7.70;99.90
21318;DHT22;10818;50.830;6.524;2023-03-20T03:40:43;7.50;99.90
21318;DHT22;10818;50.830;6.524;2023-03-20T03:46:19;7.50;99.90
21318;DHT22;10818;50.830;6.524;2023-03-20T03:51:12;7.40;99.90
21318;DHT22;10818;50.830;6.524;2023-03-20T03:56:14;7.40;99.90
21318;DHT22;10818;50.830;6.524;2023-03-20T04:01:16;7.40;99.90
21318;DHT22;10818;50.830;6.524;2023-03-20T04:06:17;7.50;99.90
21318;DHT22;10818;50.830;6.524;2023-03-20T04:11:19;7.60;99.90
21318;DHT22;10818;50.830;6.524;2023-03-20T04:16:20;7.60;99.90
21318;DHT22;10818;50.830;6.524;2023-03-20T04:21:21;7.60;99.90
21318;DHT22;10818;50.830;6.524;2023-03-20T04:26:22;7.40;99.90
21318;DHT22;10818;50.830;6.524;2023-03-20T04:31:22;7.40;99.90
21318;DHT22;10818;50.830;6.524;2023-03-20T04:36:23;7.30;99.90
21318;DHT22;10818;50.830;6.524;2023-03-20T04:41:24;7.30;99.90
21318;DHT22;10818;50.830;6.524;2023-03-20T04:46:24;7.20;99.90
21318;DHT22;10818;50.830;6.524;2023-03-20T04:51:24;7.10;99.90
21318;DHT22;10818;50.830;6.524;2023-03-20T04:56:25;7.20;99.90
21318;DHT22;10818;50.830;6.524;2023-03-20T05:01:25;7.10;99.90
21318;DHT22;10818;50.830;6.524;2023-03-20T05:06:26;7.10;99.90
21318;DHT22;10818;50.830;6.524;2023-03-20T05:11:27;7.00;99.90
21318;DHT22;10818;50.830;6.524;2023-03-20T05:16:27;6.80;99.90
21318;DHT22;10818;50.830;6.524;2023-03-20T05:21:28;6.70;99.90
21318;DHT22;10818;50.830;6.524;2023-03-20T05:26:28;6.70;99.90
21318;DHT22;10818;50.830;6.524;2023-03-20T05:31:29;6.70;99.90
21318;DHT22;10818;50.830;6.524;2023-03-20T05:36:29;6.80;99.90
21318;DHT22;10818;50.830;6.524;2023-03-20T05:41:30;6.90;99.90
21318;DHT22;10818;50.830;6.524;2023-03-20T05:46:30;6.90;99.90
21318;DHT22;10818;50.830;6.524;2023-03-20T05:51:31;7.10;99.90
21318;DHT22;10818;50.830;6.524;2023-03-20T05:56:31;7.00;99.90
21318;DHT22;10818;50.830;6.524;2023-03-20T06:01:32;7.00;99.90
21318;DHT22;10818;50.830;6.524;2023-03-20T06:06:32;7.10;99.90
21318;DHT22;10818;50.830;6.524;2023-03-20T06:11:36;7.30;99.90
21318;DHT22;10818;50.830;6.524;2023-03-20T06:16:37;7.40;99.90
21318;DHT22;10818;50.830;6.524;2023-03-20T06:21:37;7.50;99.90
21318;DHT22;10818;50.830;6.524;2023-03-20T06:26:38;7.70;99.90
21318;DHT22;10818;50.830;6.524;2023-03-20T06:31:38;7.80;99.90
21318;DHT22;10818;50.830;6.524;2023-03-20T06:36:39;7.90;99.90
21318;DHT22;10818;50.830;6.524;2023-03-20T06:41:40;8.00;99.90
21318;DHT22;10818;50.830;6.524;2023-03-20T06:46:40;8.10;99.90
21318;DHT22;10818;50.830;6.524;2023-03-20T06:51:41;8.30;99.90
21318;DHT22;10818;50.830;6.524;2023-03-20T06:56:41;8.60;99.90
21318;DHT22;10818;50.830;6.524;2023-03-20T07:01:42;8.80;99.90
21318;DHT22;10818;50.830;6.524;2023-03-20T07:06:44;9.30;99.90
21318;DHT22;10818;50.830;6.524;2023-03-20T07:11:44;9.50;99.90
21318;DHT22;10818;50.830;6.524;2023-03-20T07:16:45;9.60;99.90
21318;DHT22;10818;50.830;6.524;2023-03-20T07:21:45;9.60;99.90
21318;DHT22;10818;50.830;6.524;2023-03-20T07:26:46;9.50;99.90
21318;DHT22;10818;50.830;6.524;2023-03-20T07:31:46;9.50;99.90
21318;DHT22;10818;50.830;6.524;2023-03-20T07:36:47;9.40;99.90
21318;DHT22;10818;50.830;6.524;2023-03-20T07:41:47;9.50;99.90
21318;DHT22;10818;50.830;6.524;2023-03-20T07:46:48;9.60;99.90
21318;DHT22;10818;50.830;6.524;2023-03-20T07:51:48;9.80;99.90
21318;DHT22;10818;50.830;6.524;2023-03-20T07:56:49;10.00;99.90
21318;DHT22;10818;50.830;6.524;2023-03-20T08:01:50;10.10;99.90
21318;DHT22;10818;50.830;6.524;2023-03-20T08:06:51;10.20;99.90
21318;DHT22;10818;50.830;6.524;2023-03-20T08:11:51;10.30;99.90
21318;DHT22;10818;50.830;6.524;2023-03-20T08:16:52;10.40;99.90
21318;DHT22;10818;50.830;6.524;2023-03-20T08:21:52;10.40;99.90
21318;DHT22;10818;50.830;6.524;2023-03-20T08:26:53;10.50;99.90
21318;DHT22;10818;50.830;6.524;2023-03-20T08:31:53;10.40;99.90
21318;DHT22;10818;50.830;6.524;2023-03-20T08:36:55;10.40;99.90
21318;DHT22;10818;50.830;6.524;2023-03-20T08:41:56;10.60;99.90
21318;DHT22;10818;50.830;6.524;2023-03-20T08:46:56;10.90;99.90
21318;DHT22;10818;50.830;6.524;2023-03-20T08:51:57;11.20;99.90
21318;DHT22;10818;50.830;6.524;2023-03-20T08:56:57;11.70;99.90
21318;DHT22;10818;50.830;6.524;2023-03-20T09:01:57;12.50;99.90
21318;DHT22;10818;50.830;6.524;2023-03-20T09:06:58;12.60;99.90
21318;DHT22;10818;50.830;6.524;2023-03-20T09:12:00;12.80;99.90
21318;DHT22;10818;50.830;6.524;2023-03-20T09:17:00;12.60;99.90
21318;DHT22;10818;50.830;6.524;2023-03-20T09:22:01;12.30;99.90
21318;DHT22;10818;50.830;6.524;2023-03-20T09:27:01;11.90;99.90
21318;DHT22;10818;50.830;6.524;2023-03-20T09:32:02;12.00;99.90
21318;DHT22;10818;50.830;6.524;2023-03-20T09:37:02;12.00;99.90
21318;DHT22;10818;50.830;6.524;2023-03-20T09:52:25;11.70;99.90
21318;DHT22;10818;50.830;6.524;2023-03-20T09:57:45;11.80;99.90
21318;DHT22;10818;50.830;6.524;2023-03-20T10:07:47;12.20;99.90
21318;DHT22;10818;50.830;6.524;2023-03-20T10:12:49;12.40;99.90
21318;DHT22;10818;50.830;6.524;2023-03-20T10:18:16;12.30;99.90
21318;DHT22;10818;50.830;6.524;2023-03-20T10:23:24;12.00;99.90
21318;DHT22;10818;50.830;6.524;2023-03-20T10:28:37;11.80;99.90
21318;DHT22;10818;50.830;6.524;2023-03-20T10:33:54;11.80;99.90
21318;DHT22;10818;50.830;6.524;2023-03-20T10:39:11;11.60;99.90
21318;DHT22;10818;50.830;6.524;2023-03-20T10:44:23;11.50;99.90
21318;DHT22;10818;50.830;6.524;2023-03-20T10:49:32;11.40;99.90
21318;DHT22;10818;50.830;6.524;2023-03-20T10:54:39;11.30;99.90
21318;DHT22;10818;50.830;6.524;2023-03-20T10:59:42;11.20;99.90
21318;DHT22;10818;50.830;6.524;2023-03-20T11:04:45;11.30;99.90
21318;DHT22;10818;50.830;6.524;2023-03-20T11:09:50;11.30;99.90
21318;DHT22;10818;50.830;6.524;2023-03-20T11:20:13;11.20;99.90
21318;DHT22;10818;50.830;6.524;2023-03-20T11:25:24;11.30;99.90
21318;DHT22;10818;50.830;6.524;2023-03-20T11:30:27;11.40;99.90
21318;DHT22;10818;50.830;6.524;2023-03-20T11:35:28;11.80;99.90
21318;DHT22;10818;50.830;6.524;2023-03-20T11:40:32;12.00;99.90
21318;DHT22;10818;50.830;6.524;2023-03-20T11:51:04;11.90;99.90
21318;DHT22;10818;50.830;6.524;2023-03-20T12:01:10;11.90;99.90
21318;DHT22;10818;50.830;6.524;2023-03-20T12:06:18;11.90;99.90
21318;DHT22;10818;50.830;6.524;2023-03-20T12:11:23;11.70;99.90
21318;DHT22;10818;50.830;6.524;2023-03-20T12:16:28;11.90;99.90
21318;DHT22;10818;50.830;6.524;2023-03-20T12:21:41;11.90;99.90
21318;DHT22;10818;50.830;6.524;2023-03-20T12:26:45;12.10;99.90
21318;DHT22;10818;50.830;6.524;2023-03-20T12:31:55;12.50;99.90
21318;DHT22;10818;50.830;6.524;2023-03-20T12:36:57;12.60;99.90
21318;DHT22;10818;50.830;6.524;2023-03-20T12:42:05;12.90;99.90
21318;DHT22;10818;50.830;6.524;2023-03-20T12:57:30;13.30;99.90
21318;DHT22;10818;50.830;6.524;2023-03-20T13:02:38;13.20;99.90
21318;DHT22;10818;50.830;6.524;2023-03-20T13:18:07;13.60;99.90
21318;DHT22;10818;50.830;6.524;2023-03-20T13:23:21;13.70;99.90
21318;DHT22;10818;50.830;6.524;2023-03-20T13:28:34;13.60;99.90
21318;DHT22;10818;50.830;6.524;2023-03-20T13:38:40;13.80;99.90
21318;DHT22;10818;50.830;6.524;2023-03-20T13:43:44;13.80;99.90
21318;DHT22;10818;50.830;6.524;2023-03-20T13:48:47;13.80;99.90
21318;DHT22;10818;50.830;6.524;2023-03-20T13:58:55;13.90;99.90
21318;DHT22;10818;50.830;6.524;2023-03-20T14:04:00;13.90;99.90
21318;DHT22;10818;50.830;6.524;2023-03-20T14:09:01;13.90;99.90
21318;DHT22;10818;50.830;6.524;2023-03-20T14:19:04;13.80;99.90
21318;DHT22;10818;50.830;6.524;2023-03-20T14:24:05;13.50;99.90
21318;DHT22;10818;50.830;6.524;2023-03-20T14:44:26;12.90;99.90
21318;DHT22;10818;50.830;6.524;2023-03-20T14:49:35;13.00;99.90
21318;DHT22;10818;50.830;6.524;2023-03-20T14:54:43;13.10;99.90
21318;DHT22;10818;50.830;6.524;2023-03-20T14:59:50;13.30;99.90
21318;DHT22;10818;50.830;6.524;2023-03-20T15:04:51;13.40;99.90
21318;DHT22;10818;50.830;6.524;2023-03-20T15:09:55;13.70;99.90
21318;DHT22;10818;50.830;6.524;2023-03-20T15:15:00;13.60;99.90
21318;DHT22;10818;50.830;6.524;2023-03-20T15:20:02;13.60;99.90
21318;DHT22;10818;50.830;6.524;2023-03-20T15:25:03;13.40;99.90
21318;DHT22;10818;50.830;6.524;2023-03-20T15:30:04;13.30;99.90
21318;DHT22;10818;50.830;6.524;2023-03-20T15:35:04;13.30;99.90
21318;DHT22;10818;50.830;6.524;2023-03-20T15:40:09;13.50;99.90
21318;DHT22;10818;50.830;6.524;2023-03-20T15:45:20;13.50;99.90
21318;DHT22;10818;50.830;6.524;2023-03-20T15:50:21;13.30;99.90
21318;DHT22;10818;50.830;6.524;2023-03-20T15:55:22;13.30;99.90
21318;DHT22;10818;50.830;6.524;2023-03-20T16:05:25;13.10;99.90
21318;DHT22;10818;50.830;6.524;2023-03-20T16:10:30;13.10;99.90
21318;DHT22;10818;50.830;6.524;2023-03-20T16:15:33;12.90;99.90
21318;DHT22;10818;50.830;6.524;2023-03-20T16:20:37;12.80;99.90
21318;DHT22;10818;50.830;6.524;2023-03-20T16:25:39;12.60;99.90
21318;DHT22;10818;50.830;6.524;2023-03-20T16:30:40;12.60;99.90
21318;DHT22;10818;50.830;6.524;2023-03-20T16:35:47;12.60;99.90
21318;DHT22;10818;50.830;6.524;2023-03-20T16:40:51;12.60;99.90
21318;DHT22;10818;50.830;6.524;2023-03-20T16:45:54;12.50;99.90
21318;DHT22;10818;50.830;6.524;2023-03-20T16:50:56;12.40;99.90
21318;DHT22;10818;50.830;6.524;2023-03-20T16:55:57;12.40;99.90
21318;DHT22;10818;50.830;6.524;2023-03-20T17:01:04;12.10;99.90
21318;DHT22;10818;50.830;6.524;2023-03-20T17:06:06;12.20;99.90
21318;DHT22;10818;50.830;6.524;2023-03-20T17:11:12;12.20;99.90
21318;DHT22;10818;50.830;6.524;2023-03-20T17:16:15;12.10;99.90
21318;DHT22;10818;50.830;6.524;2023-03-20T17:21:16;11.90;99.90
21318;DHT22;10818;50.830;6.524;2023-03-20T17:26:17;11.80;99.90
21318;DHT22;10818;50.830;6.524;2023-03-20T17:31:17;11.60;99.90
21318;DHT22;10818;50.830;6.524;2023-03-20T17:36:28;11.50;99.90
21318;DHT22;10818;50.830;6.524;2023-03-20T17:41:30;11.30;99.90
21318;DHT22;10818;50.830;6.524;2023-03-20T17:46:30;11.20;99.90
21318;DHT22;10818;50.830;6.524;2023-03-20T17:51:31;11.20;99.90
21318;DHT22;10818;50.830;6.524;2023-03-20T17:56:32;11.00;99.90
21318;DHT22;10818;50.830;6.524;2023-03-20T18:01:33;11.00;99.90
21318;DHT22;10818;50.830;6.524;2023-03-20T18:06:33;10.90;99.90
21318;DHT22;10818;50.830;6.524;2023-03-20T18:11:33;10.90;99.90
21318;DHT22;10818;50.830;6.524;2023-03-20T18:16:34;11.00;99.90
21318;DHT22;10818;50.830;6.524;2023-03-20T18:21:35;10.90;99.90
21318;DHT22;10818;50.830;6.524;2023-03-20T18:26:35;10.90;99.90
21318;DHT22;10818;50.830;6.524;2023-03-20T18:31:35;10.80;99.90
21318;DHT22;10818;50.830;6.524;2023-03-20T18:36:36;10.90;99.90
21318;DHT22;10818;50.830;6.524;2023-03-20T18:41:36;10.80;99.90
21318;DHT22;10818;50.830;6.524;2023-03-20T18:46:37;10.70;99.90
21318;DHT22;10818;50.830;6.524;2023-03-20T18:51:37;10.60;99.90
21318;DHT22;10818;50.830;6.524;2023-03-20T18:56:38;10.60;99.90
21318;DHT22;10818;50.830;6.524;2023-03-20T19:01:38;10.60;99.90
21318;DHT22;10818;50.830;6.524;2023-03-20T19:06:38;10.70;99.90
21318;DHT22;10818;50.830;6.524;2023-03-20T19:11:39;10.60;99.90
21318;DHT22;10818;50.830;6.524;2023-03-20T19:16:39;10.50;99.90
21318;DHT22;10818;50.830;6.524;2023-03-20T19:21:40;10.60;99.90
21318;DHT22;10818;50.830;6.524;2023-03-20T19:26:41;10.60;99.90
21318;DHT22;10818;50.830;6.524;2023-03-20T19:31:41;10.60;99.90
21318;DHT22;10818;50.830;6.524;2023-03-20T19:36:42;10.50;99.90
21318;DHT22;10818;50.830;6.524;2023-03-20T19:41:44;10.60;99.90
21318;DHT22;10818;50.830;6.524;2023-03-20T19:46:45;10.60;99.90
21318;DHT22;10818;50.830;6.524;2023-03-20T19:51:46;10.50;99.90
21318;DHT22;10818;50.830;6.524;2023-03-20T19:56:47;10.60;99.90
21318;DHT22;10818;50.830;6.524;2023-03-20T20:01:47;10.60;99.90
21318;DHT22;10818;50.830;6.524;2023-03-20T20:06:47;10.60;99.90
21318;DHT22;10818;50.830;6.524;2023-03-20T20:11:48;10.60;99.90
21318;DHT22;10818;50.830;6.524;2023-03-20T20:16:48;10.60;99.90
21318;DHT22;10818;50.830;6.524;2023-03-20T20:21:51;10.60;99.90
21318;DHT22;10818;50.830;6.524;2023-03-20T20:26:53;10.50;99.90
21318;DHT22;10818;50.830;6.524;2023-03-20T20:31:53;10.50;99.90
21318;DHT22;10818;50.830;6.524;2023-03-20T20:36:54;10.60;99.90
21318;DHT22;10818;50.830;6.524;2023-03-20T20:41:54;10.50;99.90
21318;DHT22;10818;50.830;6.524;2023-03-20T20:46:55;10.40;99.90
21318;DHT22;10818;50.830;6.524;2023-03-20T20:51:55;10.40;99.90
21318;DHT22;10818;50.830;6.524;2023-03-20T20:56:57;10.40;99.90
21318;DHT22;10818;50.830;6.524;2023-03-20T21:01:57;10.30;99.90
21318;DHT22;10818;50.830;6.524;2023-03-20T21:06:58;10.40;99.90
21318;DHT22;10818;50.830;6.524;2023-03-20T21:11:59;10.40;99.90
21318;DHT22;10818;50.830;6.524;2023-03-20T21:17:00;10.30;99.90
21318;DHT22;10818;50.830;6.524;2023-03-20T21:22:00;10.40;99.90
21318;DHT22;10818;50.830;6.524;2023-03-20T21:27:05;10.40;99.90
21318;DHT22;10818;50.830;6.524;2023-03-20T21:32:07;10.40;99.90
21318;DHT22;10818;50.830;6.524;2023-03-20T21:37:12;10.50;99.90
21318;DHT22;10818;50.830;6.524;2023-03-20T21:42:12;10.60;99.90
21318;DHT22;10818;50.830;6.524;2023-03-20T21:47:13;10.60;99.90
21318;DHT22;10818;50.830;6.524;2023-03-20T21:52:13;10.60;99.90
21318;DHT22;10818;50.830;6.524;2023-03-20T21:57:16;10.70;99.90
21318;DHT22;10818;50.830;6.524;2023-03-20T22:02:17;10.70;99.90
21318;DHT22;10818;50.830;6.524;2023-03-20T22:07:18;10.80;99.90
21318;DHT22;10818;50.830;6.524;2023-03-20T22:12:18;10.80;99.90
21318;DHT22;10818;50.830;6.524;2023-03-20T22:17:19;10.90;99.90
21318;DHT22;10818;50.830;6.524;2023-03-20T22:22:20;10.80;99.90
21318;DHT22;10818;50.830;6.524;2023-03-20T22:27:20;10.80;99.90
21318;DHT22;10818;50.830;6.524;2023-03-20T22:32:21;10.90;99.90
21318;DHT22;10818;50.830;6.524;2023-03-20T22:37:21;10.90;99.90
21318;DHT22;10818;50.830;6.524;2023-03-20T22:42:22;11.00;99.90
21318;DHT22;10818;50.830;6.524;2023-03-20T22:47:22;11.00;99.90
21318;DHT22;10818;50.830;6.524;2023-03-20T22:52:23;11.00;99.90
21318;DHT22;10818;50.830;6.524;2023-03-20T22:57:23;11.00;99.90
21318;DHT22;10818;50.830;6.524;2023-03-20T23:02:23;11.00;99.90
21318;DHT22;10818;50.830;6.524;2023-03-20T23:07:24;11.00;99.90
21318;DHT22;10818;50.830;6.524;2023-03-20T23:12:24;10.90;99.90
21318;DHT22;10818;50.830;6.524;2023-03-20T23:17:25;10.80;99.90
21318;DHT22;10818;50.830;6.524;2023-03-20T23:22:26;10.70;99.90
21318;DHT22;10818;50.830;6.524;2023-03-20T23:27:26;10.70;99.90
21318;DHT22;10818;50.830;6.524;2023-03-20T23:32:27;10.80;99.90
21318;DHT22;10818;50.830;6.524;2023-03-20T23:37:27;10.70;99.90
21318;DHT22;10818;50.830;6.524;2023-03-20T23:42:28;10.70;99.90
21318;DHT22;10818;50.830;6.524;2023-03-20T23:47:28;10.70;99.90
21318;DHT22;10818;50.830;6.524;2023-03-20T23:52:29;10.70;99.90
21318;DHT22;10818;50.830;6.524;2023-03-20T23:57:29;10.60;99.90
